Terminal Aerodrome Forecast
Issued by NWS Lake Charles, LA

Home | Current Version | Previous Version | Text Only | Print | Product List | Glossary On
Versions: 1 2 3 4 5 6 7 8 9 10 11 12 13 14 15 16 17 18
000
FTUS44 KLCH 270048 AAA
TAFLCH
TAF AMD
KLCH 270048Z 2701/2724 13008KT P6SM VCTS FEW020CB SCT040 BKN070
     FM270200 VRB03KT P6SM FEW040 BKN120
     FM271500 10008KT P6SM VCSH SCT025 BKN050
     FM271900 12009KT P6SM VCTS FEW020CB SCT030 BKN060 PROB30
      2719/2724 3SM TSRA BKN020CB OVC030=

USA.gov is the U.S. government's official web portal to all federal, state and local government web resources and services.